Time;durP1;ratioP1;P1;durP2;ratioP2;P2;SDS_P1;SDS_P2;PMS_P1;PMS_P2;Temp;Humidity;BMP_temperature;BMP_pressure;BME280_temperature;BME280_humidity;BME280_pressure;Samples;Min_cycle;Max_cycle;Signal;HPM_P1;HPM_P2
2022/04/24 00:00:27;;;;;;;5.68;1.75;;;;;;;6.40;90.31;91300.00;4778832;29;20043;-86
2022/04/24 00:02:56;;;;;;;8.07;1.90;;;;;;;5.96;90.69;91242.31;4807398;29;20042;-86
2022/04/24 00:05:29;;;;;;;2.63;1.40;;;;;;;6.23;89.70;91274.59;4777487;29;20050;-85
2022/04/24 00:07:55;;;;;;;8.25;2.33;;;;;;;6.08;92.60;91257.47;4806907;29;20047;-87
2022/04/24 00:10:29;;;;;;;4.45;1.63;;;;;;;5.90;90.57;91227.88;4807272;29;20035;-87
2022/04/24 00:12:55;;;;;;;4.97;1.65;;;;;;;5.89;92.78;91249.69;4806843;29;20034;-86
2022/04/24 00:15:24;;;;;;;4.53;1.80;;;;;;;6.03;90.95;91253.13;4806871;29;20121;-86
2022/04/24 00:17:52;;;;;;;7.63;1.58;;;;;;;5.89;89.56;91222.97;4806743;29;20078;-87
2022/04/24 00:20:24;;;;;;;2.20;1.30;;;;;;;5.88;89.92;91222.19;4807116;29;20031;-86
2022/04/24 00:22:50;;;;;;;2.08;1.40;;;;;;;6.05;91.57;91263.22;4794415;29;20093;-86
2022/04/24 00:25:16;;;;;;;5.13;1.55;;;;;;;6.14;92.52;91289.31;4772193;30;20027;-86
2022/04/24 00:27:42;;;;;;;4.43;1.45;;;;;;;5.94;91.16;91272.22;4789730;29;20447;-87
2022/04/24 00:30:08;;;;;;;4.32;1.30;;;;;;;6.03;89.16;91299.91;4789877;29;20488;-86
2022/04/24 00:32:34;;;;;;;4.28;1.40;;;;;;;6.03;91.30;91294.69;4784258;30;20039;-87
2022/04/24 00:35:05;;;;;;;8.05;1.48;;;;;;;5.68;92.99;91257.09;4795158;29;20065;-86
2022/04/24 00:37:33;;;;;;;5.63;1.52;;;;;;;5.84;93.29;91289.53;4806583;29;20046;-87
2022/04/24 00:39:59;;;;;;;4.07;1.40;;;;;;;5.51;94.08;91239.44;4791346;29;20368;-87
2022/04/24 00:42:24;;;;;;;3.95;1.40;;;;;;;5.68;88.14;91277.09;4791624;29;20388;-87
2022/04/24 00:44:53;;;;;;;3.13;1.30;;;;;;;5.57;86.51;91232.34;4807748;29;20042;-87
2022/04/24 00:47:37;;;;;;;3.75;1.23;;;;;;;5.54;88.38;91244.06;4793030;29;20035;-87
2022/04/24 00:50:05;;;;;;;3.63;1.10;;;;;;;5.53;89.79;91231.38;4805298;29;20041;-86
2022/04/24 00:52:37;;;;;;;4.38;1.33;;;;;;;5.45;91.68;91225.03;4807385;29;20039;-89
2022/04/24 00:55:08;;;;;;;3.35;1.27;;;;;;;5.63;93.06;91270.16;4806534;29;20129;-87
2022/04/24 00:57:40;;;;;;;5.80;1.20;;;;;;;5.58;92.65;91234.66;4807445;29;20042;-87
2022/04/24 01:00:14;;;;;;;5.32;1.30;;;;;;;5.81;90.88;91258.94;4806578;29;20543;-88
2022/04/24 01:02:54;;;;;;;4.57;1.25;;;;;;;5.58;92.22;91208.72;4805806;29;20115;-87
2022/04/24 01:05:25;;;;;;;3.85;1.35;;;;;;;5.45;91.75;91187.91;4791379;29;20706;-88
2022/04/24 01:07:53;;;;;;;7.13;1.65;;;;;;;5.54;94.62;91223.31;4821252;29;20086;-86
2022/04/24 01:10:37;;;;;;;4.85;1.35;;;;;;;5.36;95.77;91200.78;4806014;29;20053;-87
2022/04/24 01:13:06;;;;;;;4.70;1.40;;;;;;;5.36;95.78;91193.00;4791259;29;20039;-87
2022/04/24 01:15:32;;;;;;;3.25;1.55;;;;;;;5.35;96.31;91191.44;4805691;29;20047;-87
2022/04/24 01:18:03;;;;;;;8.48;2.10;;;;;;;5.49;96.38;91207.81;4792363;29;20075;-87
2022/04/24 01:20:36;;;;;;;3.47;1.30;;;;;;;5.37;96.10;91176.34;4792427;29;20065;-87
2022/04/24 01:23:02;;;;;;;4.75;1.50;;;;;;;5.57;96.66;91206.38;4786210;29;20046;-87
2022/04/24 01:25:28;;;;;;;9.32;1.58;;;;;;;5.47;96.64;91202.16;4776121;29;20049;-86
2022/04/24 01:27:53;;;;;;;4.88;1.48;;;;;;;5.39;98.11;91185.38;4781177;29;20492;-87
2022/04/24 01:30:19;;;;;;;3.45;1.50;;;;;;;5.31;100.00;91198.25;4790914;29;20038;-87
2022/04/24 01:32:45;;;;;;;4.43;1.67;;;;;;;5.16;99.79;91165.56;4807268;29;20055;-87
2022/04/24 01:35:17;;;;;;;3.95;1.73;;;;;;;5.53;99.64;91221.75;4821562;29;20038;-87
2022/04/24 01:37:46;;;;;;;7.05;1.63;;;;;;;5.70;95.80;91233.44;4788525;29;20035;-87
2022/04/24 01:40:12;;;;;;;5.38;1.45;;;;;;;5.68;98.14;91230.34;4790747;30;20118;-88
2022/04/24 01:42:42;;;;;;;6.38;1.67;;;;;;;5.24;98.61;91169.31;4762401;30;20032;-87
2022/04/24 01:45:13;;;;;;;5.40;1.50;;;;;;;5.44;98.19;91207.88;4809259;29;20040;-93
2022/04/24 01:47:40;;;;;;;5.18;1.60;;;;;;;5.18;100.00;91153.84;4802114;29;20061;-91
2022/04/24 01:50:16;;;;;;;5.63;1.85;;;;;;;5.39;98.79;91207.97;4800844;29;20063;-87
2022/04/24 01:52:46;;;;;;;5.50;1.70;;;;;;;5.35;98.80;91199.22;4766870;30;20496;-87
2022/04/24 01:55:16;;;;;;;4.72;1.50;;;;;;;5.14;99.44;91162.47;4791483;30;20038;-87
2022/04/24 01:57:44;;;;;;;5.53;1.50;;;;;;;5.20;99.01;91172.47;4802342;29;20138;-87
2022/04/24 02:00:19;;;;;;;5.72;1.85;;;;;;;5.18;99.37;91179.78;4787223;30;20027;-86
2022/04/24 02:02:59;;;;;;;6.53;1.55;;;;;;;5.19;100.00;91194.28;4787207;30;20035;-87
2022/04/24 02:05:25;;;;;;;3.28;1.38;;;;;;;5.04;100.00;91183.38;4803035;29;20129;-86
2022/04/24 02:07:58;;;;;;;2.10;1.30;;;;;;;5.05;99.14;91184.94;4790042;29;20604;-87
2022/04/24 02:10:39;;;;;;;6.50;1.50;;;;;;;5.18;100.00;91205.72;4806202;29;20041;-87
2022/04/24 02:13:11;;;;;;;5.43;1.67;;;;;;;5.00;100.00;91188.38;4790699;29;20511;-87
2022/04/24 02:15:37;;;;;;;3.70;1.27;;;;;;;4.97;100.00;91187.09;4790324;29;20093;-87
2022/04/24 02:18:07;;;;;;;6.15;1.20;;;;;;;5.01;100.00;91179.53;4787414;29;20058;-87
2022/04/24 02:20:36;;;;;;;3.20;1.13;;;;;;;5.10;100.00;91195.97;4790316;29;20081;-86
2022/04/24 02:23:09;;;;;;;2.80;1.30;;;;;;;5.04;100.00;91194.50;4790067;29;20065;-87
2022/04/24 02:25:37;;;;;;;5.47;1.23;;;;;;;5.04;100.00;91178.94;4804704;29;20111;-87
2022/04/24 02:28:12;;;;;;;2.75;1.48;;;;;;;5.19;100.00;91196.88;4806208;29;20460;-87
2022/04/24 02:30:38;;;;;;;1.58;1.00;;;;;;;5.34;100.00;91208.84;4794279;29;20051;-87
2022/04/24 02:33:06;;;;;;;3.80;1.40;;;;;;;5.11;100.00;91178.59;4788710;30;20379;-86
2022/04/24 02:35:32;;;;;;;2.90;1.23;;;;;;;5.41;98.61;91213.66;4786659;30;20134;-87
2022/04/24 02:38:00;;;;;;;2.03;1.45;;;;;;;5.26;97.29;91195.75;4801654;29;20051;-86
2022/04/24 02:40:27;;;;;;;2.60;1.15;;;;;;;5.20;96.43;91177.66;4794481;29;20561;-87
2022/04/24 02:42:56;;;;;;;1.83;1.00;;;;;;;5.25;97.30;91199.41;4789811;29;20065;-86
2022/04/24 02:45:28;;;;;;;2.80;0.95;;;;;;;5.16;96.03;91183.72;4804742;29;20027;-87
2022/04/24 02:47:54;;;;;;;2.22;1.10;;;;;;;5.14;96.58;91203.97;4789782;29;20035;-87
2022/04/24 02:50:24;;;;;;;2.53;1.00;;;;;;;5.13;96.89;91208.38;4804966;29;20042;-87
2022/04/24 02:52:57;;;;;;;2.67;1.13;;;;;;;5.18;97.43;91217.94;4796415;29;20763;-86
2022/04/24 02:55:25;;;;;;;;;;;;;;;5.40;97.55;91245.84;4799970;29;20047;-87
2022/04/24 02:57:59;;;;;;;3.60;1.10;;;;;;;4.99;97.92;91182.41;4789974;29;19913;-87
2022/04/24 03:00:39;;;;;;;1.50;0.82;;;;;;;5.22;99.41;91242.22;4802375;29;20068;-88
2022/04/24 03:03:08;;;;;;;5.20;1.38;;;;;;;4.84;98.36;91180.06;4757486;30;20122;-87
2022/04/24 03:05:39;;;;;;;1.60;0.95;;;;;;;5.17;98.49;91224.91;4761873;30;20044;-86
2022/04/24 03:08:08;;;;;;;2.88;1.13;;;;;;;4.84;99.84;91206.00;4754018;30;20051;-87
2022/04/24 03:10:35;;;;;;;4.00;1.30;;;;;;;5.12;99.92;91227.59;4772864;30;20043;-87
2022/04/24 03:13:03;;;;;;;1.20;0.90;;;;;;;4.94;98.05;91211.00;4783600;30;20118;-87
2022/04/24 03:15:31;;;;;;;1.65;0.90;;;;;;;5.03;97.34;91218.91;4774065;30;20112;-88
2022/04/24 03:18:07;;;;;;;2.38;0.88;;;;;;;4.71;97.89;91178.94;4760639;30;20042;-87
2022/04/24 03:20:33;;;;;;;2.83;0.95;;;;;;;4.77;99.02;91201.16;4760242;30;20477;-87
2022/04/24 03:23:01;;;;;;;1.88;0.90;;;;;;;4.95;98.38;91235.09;4788790;30;20038;-87
2022/04/24 03:25:29;;;;;;;2.58;1.02;;;;;;;4.71;98.82;91194.50;4773822;30;20051;-87
2022/04/24 03:27:55;;;;;;;1.42;0.90;;;;;;;4.66;99.24;91198.97;4774047;30;20203;-88
2022/04/24 03:30:33;;;;;;;1.23;0.90;;;;;;;4.92;99.38;91227.91;4756720;30;20036;-87
2022/04/24 03:32:59;;;;;;;1.83;1.13;;;;;;;4.71;99.58;91202.28;4756974;30;20393;-88
2022/04/24 03:35:26;;;;;;;1.63;0.90;;;;;;;5.10;97.89;91255.66;4756283;30;20052;-87
2022/04/24 03:37:55;;;;;;;1.45;1.00;;;;;;;4.85;98.17;91223.06;4756229;30;20031;-88
2022/04/24 03:40:29;;;;;;;2.53;1.10;;;;;;;4.74;99.05;91208.72;4755526;30;20102;-88
2022/04/24 03:42:55;;;;;;;2.00;1.00;;;;;;;4.80;98.55;91223.91;4753431;30;20189;-89
2022/04/24 03:45:28;;;;;;;3.47;0.98;;;;;;;4.73;96.73;91209.78;4743057;30;20488;-87
2022/04/24 03:47:58;;;;;;;2.63;1.10;;;;;;;4.94;96.18;91241.38;4772104;30;20062;-87
2022/04/24 03:50:25;;;;;;;2.05;0.98;;;;;;;5.07;96.01;91271.78;4772381;30;20119;-87
2022/04/24 03:52:55;;;;;;;1.15;0.90;;;;;;;4.99;95.28;91252.41;4756693;30;20043;-87
2022/04/24 03:55:23;;;;;;;1.58;1.00;;;;;;;5.01;92.64;91254.75;4744454;30;20043;-86
2022/04/24 03:57:51;;;;;;;1.92;1.08;;;;;;;4.93;92.89;91224.25;4788762;29;20035;-87
2022/04/24 04:00:22;;;;;;;2.38;0.95;;;;;;;5.00;94.05;91246.19;4773827;30;20472;-87
2022/04/24 04:02:52;;;;;;;1.70;0.82;;;;;;;4.61;92.83;91193.84;4807710;29;20490;-87
2022/04/24 04:05:20;;;;;;;1.48;0.80;;;;;;;4.60;93.45;91198.28;4806733;29;20156;-87
2022/04/24 04:07:56;;;;;;;0.73;0.60;;;;;;;4.75;94.47;91218.81;4808357;29;20015;-87
2022/04/24 04:10:37;;;;;;;3.17;1.00;;;;;;;5.07;95.55;91255.47;4806944;29;20035;-87
2022/04/24 04:13:13;;;;;;;1.83;0.98;;;;;;;4.70;95.27;91213.69;4806859;29;20042;-87
2022/04/24 04:15:44;;;;;;;2.33;1.00;;;;;;;4.78;96.21;91238.97;4807633;29;20488;-87
2022/04/24 04:18:25;;;;;;;1.88;1.10;;;;;;;4.77;97.29;91247.81;4791697;29;20057;-87
2022/04/24 04:20:51;;;;;;;1.73;1.10;;;;;;;4.65;98.33;91221.53;4793588;29;20039;-87
2022/04/24 04:23:27;;;;;;;2.38;0.90;;;;;;;4.55;98.51;91213.91;4788954;30;20034;-87
2022/04/24 04:26:07;;;;;;;2.42;0.95;;;;;;;4.56;98.16;91207.66;4793179;29;20043;-88
2022/04/24 04:28:37;;;;;;;1.48;0.95;;;;;;;4.86;97.78;91249.75;4789498;29;20146;-87
2022/04/24 04:31:08;;;;;;;2.15;1.10;;;;;;;4.82;96.65;91248.78;4792032;29;20097;-87
2022/04/24 04:33:41;;;;;;;2.42;1.08;;;;;;;5.05;94.85;91278.31;4791996;29;20133;-87
2022/04/24 04:36:10;;;;;;;1.33;0.90;;;;;;;4.82;92.88;91231.44;4806548;29;20061;-86
2022/04/24 04:38:36;;;;;;;2.80;1.10;;;;;;;4.74;94.52;91226.88;4805919;29;20038;-87
2022/04/24 04:41:09;;;;;;;2.40;1.20;;;;;;;4.88;95.59;91252.84;4802068;29;20096;-86
2022/04/24 04:43:35;;;;;;;1.27;0.77;;;;;;;5.04;95.26;91267.13;4792927;29;20035;-86
2022/04/24 04:46:02;;;;;;;1.33;0.77;;;;;;;4.98;92.17;91247.53;4801755;29;20039;-86
2022/04/24 04:48:34;;;;;;;2.10;0.88;;;;;;;4.79;92.24;91219.75;4801447;29;20110;-85
2022/04/24 04:51:00;;;;;;;3.50;1.00;;;;;;;4.78;92.01;91214.88;4790635;30;20058;-86
2022/04/24 04:53:26;;;;;;;1.73;1.02;;;;;;;5.03;91.63;91231.88;4804305;29;20039;-87
2022/04/24 04:55:51;;;;;;;2.42;0.73;;;;;;;4.65;93.19;91189.66;4789594;30;20047;-86
2022/04/24 04:58:17;;;;;;;2.67;1.02;;;;;;;4.74;93.01;91201.69;4789722;30;20404;-86
2022/04/24 05:00:50;;;;;;;4.90;1.02;;;;;;;4.90;90.04;91198.88;4788860;30;20389;-85
2022/04/24 05:03:15;;;;;;;1.10;0.90;;;;;;;4.92;91.35;91212.34;4791739;29;20039;-86
2022/04/24 05:05:42;;;;;;;2.60;1.00;;;;;;;5.08;92.10;91246.59;4799831;29;20050;-86
2022/04/24 05:08:08;;;;;;;1.33;0.98;;;;;;;5.03;92.47;91242.25;4808398;29;20041;-86
2022/04/24 05:10:33;;;;;;;3.03;1.60;;;;;;;5.14;93.04;91246.25;4808729;29;20039;-86
2022/04/24 05:13:01;;;;;;;3.33;1.10;;;;;;;4.99;91.65;91215.34;4809926;29;20423;-86
2022/04/24 05:15:30;;;;;;;0.60;0.60;;;;;;;5.31;88.01;91239.75;4794281;29;20031;-85
2022/04/24 05:17:55;;;;;;;2.53;0.93;;;;;;;5.36;85.27;91247.50;4810539;29;20038;-89
2022/04/24 05:20:21;;;;;;;1.33;0.70;;;;;;;5.37;86.17;91262.00;4808687;29;20054;-94
2022/04/24 05:22:47;;;;;;;0.88;0.70;;;;;;;5.47;88.59;91263.66;4812857;29;20087;-93
2022/04/24 05:25:14;;;;;;;0.82;0.73;;;;;;;5.46;88.36;91262.88;4799401;29;20553;-86
2022/04/24 05:27:40;;;;;;;1.63;0.75;;;;;;;5.57;89.48;91253.88;4793222;29;20046;-86
2022/04/24 05:30:08;;;;;;;2.78;0.80;;;;;;;5.46;90.08;91262.88;4805936;29;20085;-87
2022/04/24 05:32:42;;;;;;;1.52;0.70;;;;;;;5.56;89.71;91267.94;4805216;29;20042;-87
2022/04/24 05:35:08;;;;;;;2.10;0.82;;;;;;;5.43;89.06;91263.47;4802414;29;20039;-88
2022/04/24 05:37:35;;;;;;;2.00;0.63;;;;;;;5.41;88.06;91270.75;4789542;29;20035;-87
2022/04/24 05:40:00;;;;;;;1.48;0.75;;;;;;;5.35;89.15;91256.31;4795369;29;20106;-87
2022/04/24 05:42:26;;;;;;;2.63;1.20;;;;;;;5.50;90.41;91271.66;4814941;29;20495;-87
2022/04/24 05:44:53;;;;;;;3.33;1.00;;;;;;;5.38;89.24;91266.13;4794656;29;20092;-87
2022/04/24 05:47:19;;;;;;;4.32;0.88;;;;;;;5.40;89.78;91284.78;4806382;29;20039;-86
2022/04/24 05:49:44;;;;;;;3.35;0.85;;;;;;;5.11;90.22;91244.22;4804848;29;20500;-86
2022/04/24 05:52:10;;;;;;;1.00;0.80;;;;;;;5.43;90.21;91279.03;4767089;29;20031;-86
2022/04/24 05:54:35;;;;;;;2.20;0.98;;;;;;;5.38;90.95;91271.31;4805643;29;20390;-86
2022/04/24 05:57:01;;;;;;;2.40;1.23;;;;;;;5.53;90.67;91276.25;4805504;29;20392;-86
2022/04/24 05:59:26;;;;;;;1.52;1.00;;;;;;;5.66;89.65;91292.19;4802465;29;20032;-86
2022/04/24 06:01:52;;;;;;;2.35;1.10;;;;;;;5.91;88.40;91286.56;4795566;29;20055;-86
2022/04/24 06:04:21;;;;;;;2.20;1.00;;;;;;;6.13;86.99;91291.13;4803107;29;20639;-85
2022/04/24 06:06:46;;;;;;;3.47;1.20;;;;;;;6.23;86.63;91295.38;4787444;29;20062;-86
2022/04/24 06:09:13;;;;;;;3.78;1.00;;;;;;;6.47;85.39;91298.56;4782623;30;20039;-85
2022/04/24 06:11:41;;;;;;;1.85;0.98;;;;;;;6.34;85.95;91296.72;4772403;30;20130;-86
2022/04/24 06:14:06;;;;;;;1.35;0.60;;;;;;;6.35;85.85;91303.47;4763331;30;20035;-85
2022/04/24 06:16:32;;;;;;;2.75;0.88;;;;;;;6.06;85.21;91285.56;4770461;29;20077;-87
2022/04/24 06:18:57;;;;;;;2.08;0.88;;;;;;;6.15;84.99;91303.84;4777300;29;20532;-85
2022/04/24 06:21:23;;;;;;;1.15;0.90;;;;;;;6.12;85.64;91289.59;4770139;29;20031;-86
2022/04/24 06:23:48;;;;;;;1.80;0.80;;;;;;;6.15;86.04;91290.88;4772189;29;20491;-86
2022/04/24 06:26:14;;;;;;;3.28;1.23;;;;;;;6.45;86.62;91298.06;4791148;29;20477;-85
2022/04/24 06:28:39;;;;;;;3.65;1.10;;;;;;;6.49;85.30;91307.91;4789882;29;20428;-85
2022/04/24 06:31:05;;;;;;;1.20;0.77;;;;;;;6.50;84.28;91302.41;4777552;29;20038;-85
2022/04/24 06:33:31;;;;;;;2.20;1.02;;;;;;;6.52;85.27;91304.72;4805917;29;20556;-86
2022/04/24 06:35:56;;;;;;;1.80;0.98;;;;;;;6.52;83.53;91304.72;4790214;29;20110;-86
2022/04/24 06:38:22;;;;;;;4.38;1.25;;;;;;;6.34;85.98;91314.16;4789924;29;20043;-87
2022/04/24 06:40:48;;;;;;;1.15;0.80;;;;;;;6.22;86.63;91293.84;4759870;29;20038;-85
2022/04/24 06:43:13;;;;;;;2.50;1.00;;;;;;;6.53;85.13;91291.44;4762070;29;20039;-85
2022/04/24 06:45:41;;;;;;;1.52;0.90;;;;;;;6.75;84.27;91308.94;4786939;29;20054;-86
2022/04/24 06:48:12;;;;;;;1.38;0.75;;;;;;;6.74;81.57;91294.41;4804155;29;20039;-86
2022/04/24 06:50:41;;;;;;;0.73;0.68;;;;;;;6.86;81.21;91281.66;4792237;29;20038;-86
2022/04/24 06:53:09;;;;;;;2.50;1.33;;;;;;;7.21;79.48;91307.22;4808691;29;20126;-87
2022/04/24 06:55:40;;;;;;;1.23;0.90;;;;;;;7.12;81.12;91294.16;4808995;29;20555;-86
2022/04/24 06:58:07;;;;;;;2.45;0.80;;;;;;;7.32;82.03;91318.97;4804606;29;20039;-86
2022/04/24 07:00:37;;;;;;;1.73;0.88;;;;;;;7.08;79.10;91314.00;4777513;29;20075;-85
2022/04/24 07:03:22;;;;;;;1.88;1.13;;;;;;;6.94;81.48;91323.69;4792647;29;20043;-85
2022/04/24 07:06:00;;;;;;;2.20;1.00;;;;;;;7.09;80.66;91315.53;4778059;29;20043;-86
2022/04/24 07:08:29;;;;;;;8.63;4.60;;;;;;;7.04;82.60;91326.06;4794803;29;20065;-86
2022/04/24 07:10:55;;;;;;;3.72;1.60;;;;;;;7.01;82.92;91308.44;4789856;29;20058;-87
2022/04/24 07:13:21;;;;;;;2.95;1.10;;;;;;;6.88;86.36;91328.97;4794942;29;20046;-87
2022/04/24 07:15:47;;;;;;;2.47;1.13;;;;;;;6.87;87.88;91335.25;4777561;29;20476;-86
2022/04/24 07:18:12;;;;;;;7.55;5.60;;;;;;;7.07;87.99;91328.09;4778446;29;20103;-86
2022/04/24 07:20:38;;;;;;;2.53;1.20;;;;;;;6.75;86.87;91347.94;4775329;29;20102;-86
2022/04/24 07:23:06;;;;;;;2.78;1.00;;;;;;;6.50;86.38;91353.63;4790774;29;20072;-87
2022/04/24 07:25:41;;;;;;;2.58;1.35;;;;;;;6.50;88.40;91351.03;4776214;29;20053;-87
2022/04/24 07:28:10;;;;;;;2.67;1.00;;;;;;;6.74;86.33;91348.25;4808672;29;20416;-88
2022/04/24 07:30:36;;;;;;;1.30;0.98;;;;;;;6.66;88.75;91360.09;4807734;29;20027;-87
2022/04/24 07:33:02;;;;;;;1.55;1.02;;;;;;;6.65;87.09;91353.34;4791290;29;20580;-86
2022/04/24 07:35:31;;;;;;;2.25;1.10;;;;;;;6.63;87.71;91366.63;4799682;29;20040;-86
2022/04/24 07:37:57;;;;;;;2.83;1.35;;;;;;;6.72;84.98;91358.19;4796278;29;20066;-85
2022/04/24 07:40:25;;;;;;;1.83;0.98;;;;;;;6.80;84.69;91366.09;4794089;29;20472;-85
2022/04/24 07:43:01;;;;;;;2.60;1.10;;;;;;;6.71;85.81;91343.63;4793414;29;20031;-86
2022/04/24 07:45:33;;;;;;;3.97;1.00;;;;;;;6.70;85.80;91366.25;4810264;29;20093;-86
2022/04/24 07:47:59;;;;;;;2.13;1.10;;;;;;;6.62;84.39;91370.31;4793422;29;20042;-86
2022/04/24 07:50:30;;;;;;;2.78;1.10;;;;;;;6.75;84.65;91368.00;4780794;29;20039;-88
2022/04/24 07:52:57;;;;;;;2.10;0.98;;;;;;;6.67;83.35;91352.00;4781597;29;20391;-85
2022/04/24 07:55:24;;;;;;;1.08;0.90;;;;;;;6.52;83.83;91354.13;4778308;29;20054;-86
2022/04/24 07:57:54;;;;;;;2.17;1.10;;;;;;;7.08;83.23;91371.25;4769403;29;20034;-86
2022/04/24 08:00:25;;;;;;;4.50;2.28;;;;;;;7.12;81.63;91351.41;4789207;29;20039;-86
2022/04/24 08:02:56;;;;;;;1.58;1.05;;;;;;;7.10;81.72;91348.31;4797816;29;20086;-86
2022/04/24 08:05:36;;;;;;;2.83;1.10;;;;;;;7.32;80.13;91365.03;4783841;30;20250;-87
2022/04/24 08:08:09;;;;;;;1.33;0.80;;;;;;;7.20;82.17;91353.28;4785317;29;20119;-87
2022/04/24 08:10:38;;;;;;;15.80;7.80;;;;;;;7.45;79.23;91369.44;4808595;29;20096;-87
2022/04/24 08:13:05;;;;;;;2.25;0.93;;;;;;;7.32;78.33;91368.44;4793138;29;20104;-87
2022/04/24 08:15:34;;;;;;;0.77;0.73;;;;;;;6.98;78.27;91361.03;4776511;29;20051;-87
2022/04/24 08:18:01;;;;;;;3.42;1.42;;;;;;;7.26;78.78;91370.34;4762381;29;20038;-86
2022/04/24 08:20:27;;;;;;;1.95;1.00;;;;;;;7.41;79.35;91366.66;4787901;29;20741;-87
2022/04/24 08:22:54;;;;;;;2.40;1.10;;;;;;;7.28;80.79;91378.66;4784909;29;20540;-87
2022/04/24 08:25:25;;;;;;;3.30;1.17;;;;;;;7.05;82.12;91374.44;4807183;29;20054;-88
2022/04/24 08:27:52;;;;;;;3.13;1.15;;;;;;;6.88;82.62;91383.59;4793809;29;20700;-86
2022/04/24 08:30:19;;;;;;;4.07;1.50;;;;;;;6.73;82.16;91378.69;4778205;29;20497;-87
2022/04/24 08:32:45;;;;;;;4.00;0.90;;;;;;;6.63;85.97;91382.25;4808954;29;20137;-88
2022/04/24 08:35:13;;;;;;;1.67;1.10;;;;;;;6.53;86.51;91372.03;4795293;29;20031;-88
2022/04/24 08:37:39;;;;;;;2.75;1.02;;;;;;;6.38;86.23;91385.31;4793552;29;20082;-88
2022/04/24 08:40:07;;;;;;;2.90;0.98;;;;;;;6.47;86.13;91375.78;4777296;29;20204;-88
2022/04/24 08:42:33;;;;;;;1.77;1.05;;;;;;;6.37;87.22;91394.94;4809338;29;20054;-86
2022/04/24 08:44:59;;;;;;;1.55;1.00;;;;;;;6.38;87.42;91396.47;4817459;29;20027;-86
2022/04/24 08:47:26;;;;;;;1.25;0.88;;;;;;;6.51;85.67;91389.75;4787119;29;20043;-88
2022/04/24 08:49:54;;;;;;;4.10;1.23;;;;;;;6.32;85.21;91392.41;4783984;29;20050;-86
2022/04/24 08:52:21;;;;;;;1.15;0.90;;;;;;;6.44;86.15;91390.13;4798167;29;20042;-87
2022/04/24 08:54:46;;;;;;;2.50;1.00;;;;;;;6.28;86.34;91375.84;4825857;29;20023;-87
2022/04/24 08:57:12;;;;;;;6.70;2.47;;;;;;;6.61;86.97;91404.41;4825677;29;20026;-90
2022/04/24 08:59:38;;;;;;;12.30;4.68;;;;;;;6.45;87.10;91375.31;4818481;29;20038;-86
2022/04/24 09:02:06;;;;;;;2.38;1.02;;;;;;;6.54;84.66;91414.41;4821907;29;20059;-87
2022/04/24 09:04:36;;;;;;;3.75;1.25;;;;;;;6.72;83.19;91418.00;4809960;29;20062;-86
2022/04/24 09:07:04;;;;;;;4.15;1.20;;;;;;;6.70;83.32;91420.88;4790232;29;20043;-86
2022/04/24 09:09:38;;;;;;;2.50;1.20;;;;;;;6.82;84.76;91404.78;4799263;29;20027;-87
2022/04/24 09:12:12;;;;;;;2.90;1.30;;;;;;;6.94;85.08;91422.53;4805892;29;20778;-87
2022/04/24 09:14:38;;;;;;;3.30;1.10;;;;;;;6.83;82.62;91422.72;4796566;29;20039;-87
2022/04/24 09:17:16;;;;;;;5.78;3.22;;;;;;;6.97;82.86;91417.50;4791171;29;20055;-88
2022/04/24 09:19:42;;;;;;;9.30;2.55;;;;;;;7.11;85.96;91414.91;4781318;29;20039;-88
2022/04/24 09:22:11;;;;;;;4.28;1.30;;;;;;;7.42;85.06;91422.09;4798605;29;20109;-87
2022/04/24 09:25:01;;;;;;;2.40;1.20;;;;;;;7.48;81.44;91400.13;4805280;29;20035;-90
2022/04/24 09:27:33;;;;;;;4.43;1.88;;;;;;;7.81;79.78;91418.91;4803367;29;20070;-87
2022/04/24 09:30:19;;;;;;;6.18;1.75;;;;;;;8.02;81.06;91419.25;4790921;29;20637;-87
2022/04/24 09:32:53;;;;;;;4.55;1.25;;;;;;;8.08;78.46;91404.25;4808347;29;20137;-87
2022/04/24 09:35:30;;;;;;;51.70;26.35;;;;;;;8.03;81.32;91420.78;4809174;29;20102;-87
2022/04/24 09:38:09;;;;;;;13.73;6.82;;;;;;;7.65;82.26;91425.53;4798131;29;20088;-88
2022/04/24 09:40:44;;;;;;;5.32;2.58;;;;;;;7.69;83.43;91406.41;4803529;29;20046;-87
2022/04/24 09:43:15;;;;;;;2.95;1.63;;;;;;;7.37;82.72;91424.81;4823544;29;20486;-88
2022/04/24 09:45:45;;;;;;;4.85;2.05;;;;;;;7.30;84.56;91410.38;4792385;29;20073;-86
2022/04/24 09:48:15;;;;;;;6.00;2.22;;;;;;;7.17;82.09;91379.91;4805615;29;20066;-86
2022/04/24 09:50:42;;;;;;;3.60;1.65;;;;;;;8.04;83.43;91430.16;4806572;29;20038;-86
2022/04/24 09:53:15;;;;;;;4.88;2.10;;;;;;;7.87;87.23;91427.41;4806526;29;20103;-86
2022/04/24 09:55:45;;;;;;;6.82;3.90;;;;;;;7.98;86.38;91431.31;4789715;29;20038;-87
2022/04/24 09:58:15;;;;;;;4.45;1.90;;;;;;;7.42;85.55;91437.72;4804069;29;20070;-87
2022/04/24 10:00:41;;;;;;;7.78;3.60;;;;;;;7.97;84.22;91432.41;4800447;29;20071;-87
2022/04/24 10:03:09;;;;;;;10.98;5.15;;;;;;;8.41;78.27;91425.66;4785762;29;20053;-86
2022/04/24 10:05:38;;;;;;;6.40;2.22;;;;;;;8.53;79.05;91419.88;4756834;30;20039;-86
2022/04/24 10:08:06;;;;;;;4.85;2.00;;;;;;;8.18;80.02;91417.06;4802544;29;20165;-88
2022/04/24 10:10:32;;;;;;;4.05;2.33;;;;;;;8.17;79.44;91438.97;4760038;29;20445;-86
2022/04/24 10:13:00;;;;;;;8.80;2.85;;;;;;;8.05;78.84;91436.13;4774744;29;20062;-87
2022/04/24 10:15:28;;;;;;;3.60;1.40;;;;;;;8.09;79.47;91440.44;4789400;29;20038;-87
2022/04/24 10:18:14;;;;;;;5.57;2.17;;;;;;;8.12;82.52;91437.25;4789437;29;20039;-87
2022/04/24 10:20:45;;;;;;;5.38;2.42;;;;;;;8.00;81.61;91442.22;4774489;30;20047;-86
2022/04/24 10:23:12;;;;;;;68.67;26.07;;;;;;;8.05;82.87;91449.16;4769295;29;20115;-86
2022/04/24 10:25:43;;;;;;;1.92;1.02;;;;;;;8.30;80.59;91435.53;4777119;29;20038;-87
2022/04/24 10:28:16;;;;;;;3.08;1.65;;;;;;;8.72;81.14;91451.00;4792242;29;20388;-88
2022/04/24 10:31:01;;;;;;;5.38;2.45;;;;;;;8.27;81.33;91430.91;4808230;29;20096;-87
2022/04/24 10:33:32;;;;;;;4.85;2.30;;;;;;;9.01;78.50;91452.38;4792073;29;20050;-86
2022/04/24 10:36:03;;;;;;;22.52;8.05;;;;;;;8.68;77.64;91463.84;4790540;29;20066;-86
2022/04/24 10:38:30;;;;;;;17.13;7.72;;;;;;;8.03;77.86;91439.00;4808672;29;20055;-89
2022/04/24 10:41:03;;;;;;;15.25;7.40;;;;;;;8.04;79.60;91461.44;4803617;29;20119;-87
2022/04/24 10:43:41;;;;;;;;;;;;;;;8.20;81.00;91466.31;4792106;29;20039;-88
2022/04/24 10:46:19;;;;;;;7.68;3.22;;;;;;;8.07;79.20;91471.25;4768719;29;19921;-89
2022/04/24 10:48:46;;;;;;;10.55;4.82;;;;;;;7.82;79.04;91459.56;4791415;29;20039;-87
2022/04/24 10:51:13;;;;;;;15.88;7.07;;;;;;;7.81;80.27;91459.84;4803733;29;20052;-88
2022/04/24 10:53:50;;;;;;;5.72;2.13;;;;;;;7.67;81.05;91471.06;4803615;29;20031;-88
2022/04/24 10:56:16;;;;;;;4.72;2.53;;;;;;;7.61;79.60;91472.25;4804665;29;20515;-89
2022/04/24 10:58:42;;;;;;;8.10;2.60;;;;;;;7.61;79.19;91482.66;4783453;29;20047;-87
2022/04/24 11:01:10;;;;;;;3.08;1.60;;;;;;;7.45;80.62;91473.59;4787122;29;20058;-88
2022/04/24 11:03:44;;;;;;;5.15;1.60;;;;;;;7.54;81.25;91468.47;4791540;29;20041;-87
2022/04/24 11:06:23;;;;;;;6.57;2.67;;;;;;;7.66;81.39;91485.16;4807519;29;20045;-88
2022/04/24 11:08:50;;;;;;;4.78;1.60;;;;;;;7.78;80.45;91476.06;4806859;29;20361;-88
2022/04/24 11:11:18;;;;;;;4.70;2.40;;;;;;;7.82;81.57;91477.03;4803728;29;20108;-88
2022/04/24 11:13:43;;;;;;;4.80;2.10;;;;;;;7.57;84.40;91486.91;4816344;29;20100;-88
2022/04/24 11:16:11;;;;;;;4.10;1.60;;;;;;;7.77;82.12;91495.34;4806897;29;20114;-88
2022/04/24 11:18:36;;;;;;;3.72;1.90;;;;;;;7.40;83.67;91471.09;4805304;29;20047;-90
2022/04/24 11:21:07;;;;;;;4.95;2.17;;;;;;;7.45;82.96;91489.22;4820543;29;20050;-89
2022/04/24 11:23:35;;;;;;;10.23;5.10;;;;;;;7.32;81.65;91482.97;4804080;29;20033;-88
2022/04/24 11:26:12;;;;;;;5.38;1.80;;;;;;;7.81;79.88;91481.44;4790756;29;20472;-87
2022/04/24 11:28:38;;;;;;;3.80;2.10;;;;;;;8.12;80.14;91491.22;4788191;29;20301;-89
2022/04/24 11:31:21;;;;;;;6.10;2.17;;;;;;;8.09;80.73;91492.59;4798583;29;20532;-88
2022/04/24 11:33:58;;;;;;;9.43;4.47;;;;;;;7.65;81.98;91480.22;4803306;29;20038;-88
2022/04/24 11:36:30;;;;;;;4.15;1.70;;;;;;;7.97;81.16;91484.53;4808221;29;20043;-87
2022/04/24 11:38:57;;;;;;;3.58;1.83;;;;;;;8.24;79.37;91469.84;4805642;29;20043;-88
2022/04/24 11:41:26;;;;;;;5.65;2.05;;;;;;;8.60;79.86;91474.25;4777711;29;20126;-89
2022/04/24 11:43:59;;;;;;;3.55;1.83;;;;;;;8.61;79.30;91481.00;4775434;30;20036;-89
2022/04/24 11:51:58;;;;;;;6.18;2.03;;;;;;;9.06;75.21;91480.94;4805878;29;20039;-88
2022/04/24 11:54:24;;;;;;;4.60;1.90;;;;;;;8.67;76.78;91467.56;4806806;29;20050;-88
2022/04/24 11:56:51;;;;;;;4.18;1.90;;;;;;;9.08;76.96;91484.03;4805495;29;20113;-88